sensor_id;sensor_type;location;lat;lon;timestamp;temperature;humidity
7792;DHT22;3940;49.892;10.886;2022-09-29T00:00:48;8.30;99.90
7792;DHT22;3940;49.892;10.886;2022-09-29T00:03:34;8.30;99.90
7792;DHT22;3940;49.892;10.886;2022-09-29T00:06:19;8.20;99.90
7792;DHT22;3940;49.892;10.886;2022-09-29T00:09:04;8.30;99.90
7792;DHT22;3940;49.892;10.886;2022-09-29T00:11:55;8.10;99.90
7792;DHT22;3940;49.892;10.886;2022-09-29T00:14:40;8.30;99.90
7792;DHT22;3940;49.892;10.886;2022-09-29T00:17:24;8.30;99.90
7792;DHT22;3940;49.892;10.886;2022-09-29T00:20:10;8.30;99.90
7792;DHT22;3940;49.892;10.886;2022-09-29T00:22:55;7.90;99.90
7792;DHT22;3940;49.892;10.886;2022-09-29T00:25:39;8.10;99.90
7792;DHT22;3940;49.892;10.886;2022-09-29T00:28:24;8.10;99.90
7792;DHT22;3940;49.892;10.886;2022-09-29T00:31:10;8.00;99.90
7792;DHT22;3940;49.892;10.886;2022-09-29T00:33:55;7.80;99.90
7792;DHT22;3940;49.892;10.886;2022-09-29T00:36:40;7.80;99.90
7792;DHT22;3940;49.892;10.886;2022-09-29T00:39:25;7.70;99.90
7792;DHT22;3940;49.892;10.886;2022-09-29T00:42:11;7.70;99.90
7792;DHT22;3940;49.892;10.886;2022-09-29T00:45:11;7.70;99.90
7792;DHT22;3940;49.892;10.886;2022-09-29T00:48:06;7.80;99.90
7792;DHT22;3940;49.892;10.886;2022-09-29T00:50:55;7.70;99.90
7792;DHT22;3940;49.892;10.886;2022-09-29T00:53:40;7.80;99.90
7792;DHT22;3940;49.892;10.886;2022-09-29T00:56:26;7.90;99.90
7792;DHT22;3940;49.892;10.886;2022-09-29T00:59:16;7.90;99.90
7792;DHT22;3940;49.892;10.886;2022-09-29T01:02:05;8.00;99.90
7792;DHT22;3940;49.892;10.886;2022-09-29T01:04:51;8.10;99.90
7792;DHT22;3940;49.892;10.886;2022-09-29T01:07:36;8.30;99.90
7792;DHT22;3940;49.892;10.886;2022-09-29T01:10:22;8.20;99.90
7792;DHT22;3940;49.892;10.886;2022-09-29T01:13:07;8.10;99.90
7792;DHT22;3940;49.892;10.886;2022-09-29T01:15:52;8.20;99.90
7792;DHT22;3940;49.892;10.886;2022-09-29T01:18:37;8.10;99.90
7792;DHT22;3940;49.892;10.886;2022-09-29T01:21:39;7.90;99.90
7792;DHT22;3940;49.892;10.886;2022-09-29T01:27:55;7.80;99.90
7792;DHT22;3940;49.892;10.886;2022-09-29T01:31:06;7.90;99.90
7792;DHT22;3940;49.892;10.886;2022-09-29T01:34:32;7.90;99.90
7792;DHT22;3940;49.892;10.886;2022-09-29T01:37:24;7.90;99.90
7792;DHT22;3940;49.892;10.886;2022-09-29T01:40:25;7.80;99.90
7792;DHT22;3940;49.892;10.886;2022-09-29T01:43:17;7.80;99.90
7792;DHT22;3940;49.892;10.886;2022-09-29T01:46:13;7.80;99.90
7792;DHT22;3940;49.892;10.886;2022-09-29T01:49:01;7.80;99.90
7792;DHT22;3940;49.892;10.886;2022-09-29T01:51:53;7.70;99.90
7792;DHT22;3940;49.892;10.886;2022-09-29T01:54:44;7.80;99.90
7792;DHT22;3940;49.892;10.886;2022-09-29T01:57:42;7.80;99.90
7792;DHT22;3940;49.892;10.886;2022-09-29T02:00:30;7.70;99.90
7792;DHT22;3940;49.892;10.886;2022-09-29T02:03:22;7.90;99.90
7792;DHT22;3940;49.892;10.886;2022-09-29T02:06:16;8.00;99.90
7792;DHT22;3940;49.892;10.886;2022-09-29T02:09:07;8.00;99.90
7792;DHT22;3940;49.892;10.886;2022-09-29T02:11:53;7.90;99.90
7792;DHT22;3940;49.892;10.886;2022-09-29T02:14:42;8.00;99.90
7792;DHT22;3940;49.892;10.886;2022-09-29T02:17:32;8.00;99.90
7792;DHT22;3940;49.892;10.886;2022-09-29T02:20:18;7.90;99.90
7792;DHT22;3940;49.892;10.886;2022-09-29T02:23:04;8.00;99.90
7792;DHT22;3940;49.892;10.886;2022-09-29T02:25:49;7.90;99.90
7792;DHT22;3940;49.892;10.886;2022-09-29T02:28:34;7.90;99.90
7792;DHT22;3940;49.892;10.886;2022-09-29T02:31:18;8.00;99.90
7792;DHT22;3940;49.892;10.886;2022-09-29T02:34:04;8.10;99.90
7792;DHT22;3940;49.892;10.886;2022-09-29T02:37:02;8.20;99.90
7792;DHT22;3940;49.892;10.886;2022-09-29T02:40:16;8.30;99.90
7792;DHT22;3940;49.892;10.886;2022-09-29T02:43:24;8.20;99.90
7792;DHT22;3940;49.892;10.886;2022-09-29T02:46:35;8.40;99.90
7792;DHT22;3940;49.892;10.886;2022-09-29T02:49:46;8.40;99.90
7792;DHT22;3940;49.892;10.886;2022-09-29T02:52:55;8.30;99.90
7792;DHT22;3940;49.892;10.886;2022-09-29T02:55:57;8.40;99.90
7792;DHT22;3940;49.892;10.886;2022-09-29T02:58:56;8.50;99.90
7792;DHT22;3940;49.892;10.886;2022-09-29T03:01:49;8.40;99.90
7792;DHT22;3940;49.892;10.886;2022-09-29T03:04:34;8.40;99.90
7792;DHT22;3940;49.892;10.886;2022-09-29T03:07:20;8.60;99.90
7792;DHT22;3940;49.892;10.886;2022-09-29T03:10:05;8.70;99.90
7792;DHT22;3940;49.892;10.886;2022-09-29T03:12:50;8.50;99.90
7792;DHT22;3940;49.892;10.886;2022-09-29T03:15:35;8.50;99.90
7792;DHT22;3940;49.892;10.886;2022-09-29T03:18:20;8.50;99.90
7792;DHT22;3940;49.892;10.886;2022-09-29T03:21:07;8.60;99.90
7792;DHT22;3940;49.892;10.886;2022-09-29T03:23:52;8.50;99.90
7792;DHT22;3940;49.892;10.886;2022-09-29T03:26:37;8.30;99.90
7792;DHT22;3940;49.892;10.886;2022-09-29T03:29:22;8.30;99.90
7792;DHT22;3940;49.892;10.886;2022-09-29T03:32:07;8.30;99.90
7792;DHT22;3940;49.892;10.886;2022-09-29T03:34:52;8.30;99.90
7792;DHT22;3940;49.892;10.886;2022-09-29T03:37:36;8.50;99.90
7792;DHT22;3940;49.892;10.886;2022-09-29T03:40:21;8.60;99.90
7792;DHT22;3940;49.892;10.886;2022-09-29T03:43:06;8.50;99.90
7792;DHT22;3940;49.892;10.886;2022-09-29T03:45:52;8.60;99.90
7792;DHT22;3940;49.892;10.886;2022-09-29T03:48:36;8.60;99.90
7792;DHT22;3940;49.892;10.886;2022-09-29T03:51:22;8.50;99.90
7792;DHT22;3940;49.892;10.886;2022-09-29T03:54:07;8.50;99.90
7792;DHT22;3940;49.892;10.886;2022-09-29T03:56:52;8.40;99.90
7792;DHT22;3940;49.892;10.886;2022-09-29T03:59:36;8.50;99.90
7792;DHT22;3940;49.892;10.886;2022-09-29T04:02:21;8.60;99.90
7792;DHT22;3940;49.892;10.886;2022-09-29T04:05:06;8.50;99.90
7792;DHT22;3940;49.892;10.886;2022-09-29T04:07:51;8.40;99.90
7792;DHT22;3940;49.892;10.886;2022-09-29T04:10:37;8.30;99.90
7792;DHT22;3940;49.892;10.886;2022-09-29T04:13:21;8.30;99.90
7792;DHT22;3940;49.892;10.886;2022-09-29T04:16:06;8.40;99.90
7792;DHT22;3940;49.892;10.886;2022-09-29T04:18:51;8.30;99.90
7792;DHT22;3940;49.892;10.886;2022-09-29T04:21:35;8.40;99.90
7792;DHT22;3940;49.892;10.886;2022-09-29T04:24:21;8.20;99.90
7792;DHT22;3940;49.892;10.886;2022-09-29T04:27:05;8.40;99.90
7792;DHT22;3940;49.892;10.886;2022-09-29T04:29:50;8.20;99.90
7792;DHT22;3940;49.892;10.886;2022-09-29T04:32:35;8.00;99.90
7792;DHT22;3940;49.892;10.886;2022-09-29T04:35:20;7.90;99.90
7792;DHT22;3940;49.892;10.886;2022-09-29T04:38:05;8.00;99.90
7792;DHT22;3940;49.892;10.886;2022-09-29T04:40:51;7.90;99.90
7792;DHT22;3940;49.892;10.886;2022-09-29T04:43:36;7.90;99.90
7792;DHT22;3940;49.892;10.886;2022-09-29T04:46:22;7.90;99.90
7792;DHT22;3940;49.892;10.886;2022-09-29T04:49:08;8.00;99.90
7792;DHT22;3940;49.892;10.886;2022-09-29T04:51:53;8.00;99.90
7792;DHT22;3940;49.892;10.886;2022-09-29T04:54:38;8.00;99.90
7792;DHT22;3940;49.892;10.886;2022-09-29T04:57:23;8.20;99.90
7792;DHT22;3940;49.892;10.886;2022-09-29T05:00:09;8.20;99.90
7792;DHT22;3940;49.892;10.886;2022-09-29T05:02:55;8.30;99.90
7792;DHT22;3940;49.892;10.886;2022-09-29T05:05:41;8.20;99.90
7792;DHT22;3940;49.892;10.886;2022-09-29T05:08:26;8.20;99.90
7792;DHT22;3940;49.892;10.886;2022-09-29T05:11:10;8.30;99.90
7792;DHT22;3940;49.892;10.886;2022-09-29T05:13:55;8.30;99.90
7792;DHT22;3940;49.892;10.886;2022-09-29T05:16:40;8.30;99.90
7792;DHT22;3940;49.892;10.886;2022-09-29T05:19:24;8.40;99.90
7792;DHT22;3940;49.892;10.886;2022-09-29T05:22:09;8.40;99.90
7792;DHT22;3940;49.892;10.886;2022-09-29T05:24:54;8.60;99.90
7792;DHT22;3940;49.892;10.886;2022-09-29T05:27:38;8.50;99.90
7792;DHT22;3940;49.892;10.886;2022-09-29T05:30:23;8.70;99.90
7792;DHT22;3940;49.892;10.886;2022-09-29T05:33:08;8.60;99.90
7792;DHT22;3940;49.892;10.886;2022-09-29T05:35:53;8.70;99.90
7792;DHT22;3940;49.892;10.886;2022-09-29T05:38:38;8.70;99.90
7792;DHT22;3940;49.892;10.886;2022-09-29T05:41:23;8.30;99.90
7792;DHT22;3940;49.892;10.886;2022-09-29T05:44:07;8.20;99.90
7792;DHT22;3940;49.892;10.886;2022-09-29T05:46:52;8.20;99.90
7792;DHT22;3940;49.892;10.886;2022-09-29T05:49:37;8.20;99.90
7792;DHT22;3940;49.892;10.886;2022-09-29T05:52:22;8.40;99.90
7792;DHT22;3940;49.892;10.886;2022-09-29T05:55:07;8.30;99.90
7792;DHT22;3940;49.892;10.886;2022-09-29T05:57:53;8.50;99.90
7792;DHT22;3940;49.892;10.886;2022-09-29T06:00:37;8.70;99.90
7792;DHT22;3940;49.892;10.886;2022-09-29T06:03:22;8.70;99.90
7792;DHT22;3940;49.892;10.886;2022-09-29T06:06:11;8.80;99.90
7792;DHT22;3940;49.892;10.886;2022-09-29T06:08:57;8.80;99.90
7792;DHT22;3940;49.892;10.886;2022-09-29T06:11:42;8.90;99.90
7792;DHT22;3940;49.892;10.886;2022-09-29T06:14:26;8.90;99.90
7792;DHT22;3940;49.892;10.886;2022-09-29T06:17:11;8.90;99.90
7792;DHT22;3940;49.892;10.886;2022-09-29T06:19:56;8.80;99.90
7792;DHT22;3940;49.892;10.886;2022-09-29T06:22:41;8.80;99.90
7792;DHT22;3940;49.892;10.886;2022-09-29T06:25:26;8.80;99.90
7792;DHT22;3940;49.892;10.886;2022-09-29T06:28:11;8.80;99.90
7792;DHT22;3940;49.892;10.886;2022-09-29T06:31:04;8.80;99.90
7792;DHT22;3940;49.892;10.886;2022-09-29T06:33:49;8.80;99.90
7792;DHT22;3940;49.892;10.886;2022-09-29T06:36:40;9.00;99.90
7792;DHT22;3940;49.892;10.886;2022-09-29T06:39:39;9.20;99.90
7792;DHT22;3940;49.892;10.886;2022-09-29T06:42:44;9.30;99.90
7792;DHT22;3940;49.892;10.886;2022-09-29T06:45:29;9.30;99.90
7792;DHT22;3940;49.892;10.886;2022-09-29T06:48:13;9.10;99.90
7792;DHT22;3940;49.892;10.886;2022-09-29T06:50:58;9.20;99.90
7792;DHT22;3940;49.892;10.886;2022-09-29T06:53:43;9.20;99.90
7792;DHT22;3940;49.892;10.886;2022-09-29T06:56:29;9.20;99.90
7792;DHT22;3940;49.892;10.886;2022-09-29T06:59:15;9.10;99.90
7792;DHT22;3940;49.892;10.886;2022-09-29T07:01:59;9.20;99.90
7792;DHT22;3940;49.892;10.886;2022-09-29T07:04:44;9.50;99.90
7792;DHT22;3940;49.892;10.886;2022-09-29T07:07:31;9.40;99.90
7792;DHT22;3940;49.892;10.886;2022-09-29T07:10:16;9.60;99.90
7792;DHT22;3940;49.892;10.886;2022-09-29T07:13:00;9.90;99.90
7792;DHT22;3940;49.892;10.886;2022-09-29T07:15:45;9.90;99.90
7792;DHT22;3940;49.892;10.886;2022-09-29T07:18:31;9.50;99.90
7792;DHT22;3940;49.892;10.886;2022-09-29T07:21:18;9.30;99.90
7792;DHT22;3940;49.892;10.886;2022-09-29T07:24:03;9.50;99.90
7792;DHT22;3940;49.892;10.886;2022-09-29T07:26:47;9.60;99.90
7792;DHT22;3940;49.892;10.886;2022-09-29T07:29:32;9.70;99.90
7792;DHT22;3940;49.892;10.886;2022-09-29T07:32:18;9.80;99.90
7792;DHT22;3940;49.892;10.886;2022-09-29T07:35:03;9.80;99.90
7792;DHT22;3940;49.892;10.886;2022-09-29T07:37:51;9.80;99.90
7792;DHT22;3940;49.892;10.886;2022-09-29T07:40:36;9.80;99.90
7792;DHT22;3940;49.892;10.886;2022-09-29T07:43:40;9.70;99.90
7792;DHT22;3940;49.892;10.886;2022-09-29T07:46:24;10.30;99.90
7792;DHT22;3940;49.892;10.886;2022-09-29T07:49:11;10.70;99.90
7792;DHT22;3940;49.892;10.886;2022-09-29T07:51:55;10.40;99.90
7792;DHT22;3940;49.892;10.886;2022-09-29T07:54:40;10.50;99.90
7792;DHT22;3940;49.892;10.886;2022-09-29T07:57:25;10.90;99.90
7792;DHT22;3940;49.892;10.886;2022-09-29T08:00:10;10.70;99.90
7792;DHT22;3940;49.892;10.886;2022-09-29T08:02:54;10.50;99.90
7792;DHT22;3940;49.892;10.886;2022-09-29T08:05:40;10.20;99.90
7792;DHT22;3940;49.892;10.886;2022-09-29T08:08:25;10.50;99.90
7792;DHT22;3940;49.892;10.886;2022-09-29T08:11:13;10.50;99.90
7792;DHT22;3940;49.892;10.886;2022-09-29T08:13:59;10.30;99.90
7792;DHT22;3940;49.892;10.886;2022-09-29T08:16:44;10.70;99.90
7792;DHT22;3940;49.892;10.886;2022-09-29T08:19:29;10.90;99.90
7792;DHT22;3940;49.892;10.886;2022-09-29T08:22:13;11.00;99.90
7792;DHT22;3940;49.892;10.886;2022-09-29T08:24:59;11.20;99.90
7792;DHT22;3940;49.892;10.886;2022-09-29T08:27:44;11.00;99.90
7792;DHT22;3940;49.892;10.886;2022-09-29T08:30:29;11.10;99.90
7792;DHT22;3940;49.892;10.886;2022-09-29T08:33:13;11.40;99.90
7792;DHT22;3940;49.892;10.886;2022-09-29T08:36:00;11.80;99.90
7792;DHT22;3940;49.892;10.886;2022-09-29T08:38:46;12.30;99.90
7792;DHT22;3940;49.892;10.886;2022-09-29T08:41:58;12.70;99.90
7792;DHT22;3940;49.892;10.886;2022-09-29T08:44:57;12.40;99.90
7792;DHT22;3940;49.892;10.886;2022-09-29T08:47:46;13.00;99.90
7792;DHT22;3940;49.892;10.886;2022-09-29T08:50:41;13.10;99.90
7792;DHT22;3940;49.892;10.886;2022-09-29T08:53:30;13.80;99.90
7792;DHT22;3940;49.892;10.886;2022-09-29T08:56:17;13.00;99.90
7792;DHT22;3940;49.892;10.886;2022-09-29T08:59:01;13.20;99.90
7792;DHT22;3940;49.892;10.886;2022-09-29T09:01:57;13.20;99.90
7792;DHT22;3940;49.892;10.886;2022-09-29T09:04:56;13.90;99.90
7792;DHT22;3940;49.892;10.886;2022-09-29T09:08:02;14.20;99.90
7792;DHT22;3940;49.892;10.886;2022-09-29T09:14:17;13.70;99.90
7792;DHT22;3940;49.892;10.886;2022-09-29T09:17:19;17.40;99.90
7792;DHT22;3940;49.892;10.886;2022-09-29T09:23:39;19.70;99.90
7792;DHT22;3940;49.892;10.886;2022-09-29T09:26:46;19.90;99.90
7792;DHT22;3940;49.892;10.886;2022-09-29T09:29:36;17.30;99.90
7792;DHT22;3940;49.892;10.886;2022-09-29T09:32:27;15.90;99.90
7792;DHT22;3940;49.892;10.886;2022-09-29T09:35:45;15.80;99.90
7792;DHT22;3940;49.892;10.886;2022-09-29T09:38:49;14.80;99.90
7792;DHT22;3940;49.892;10.886;2022-09-29T09:41:38;14.40;99.90
7792;DHT22;3940;49.892;10.886;2022-09-29T09:44:36;15.60;99.90
7792;DHT22;3940;49.892;10.886;2022-09-29T09:47:26;16.00;99.90
7792;DHT22;3940;49.892;10.886;2022-09-29T09:50:15;16.20;99.90
7792;DHT22;3940;49.892;10.886;2022-09-29T09:53:09;16.40;99.90
7792;DHT22;3940;49.892;10.886;2022-09-29T09:56:10;15.10;99.90
7792;DHT22;3940;49.892;10.886;2022-09-29T09:59:15;14.40;99.90
7792;DHT22;3940;49.892;10.886;2022-09-29T10:02:03;15.10;99.90
7792;DHT22;3940;49.892;10.886;2022-09-29T10:04:50;15.70;99.90
7792;DHT22;3940;49.892;10.886;2022-09-29T10:07:36;15.80;99.90
7792;DHT22;3940;49.892;10.886;2022-09-29T10:10:23;16.80;99.90
7792;DHT22;3940;49.892;10.886;2022-09-29T10:13:12;16.60;99.90
7792;DHT22;3940;49.892;10.886;2022-09-29T10:16:16;15.30;99.90
7792;DHT22;3940;49.892;10.886;2022-09-29T10:19:04;16.70;99.90
7792;DHT22;3940;49.892;10.886;2022-09-29T10:21:49;17.00;99.90
7792;DHT22;3940;49.892;10.886;2022-09-29T10:24:34;17.50;99.90
7792;DHT22;3940;49.892;10.886;2022-09-29T10:27:21;17.60;99.90
7792;DHT22;3940;49.892;10.886;2022-09-29T10:30:22;18.10;99.90
7792;DHT22;3940;49.892;10.886;2022-09-29T10:33:14;17.30;99.90
7792;DHT22;3940;49.892;10.886;2022-09-29T10:36:09;16.90;99.90
7792;DHT22;3940;49.892;10.886;2022-09-29T10:38:55;18.00;99.90
7792;DHT22;3940;49.892;10.886;2022-09-29T10:41:49;18.20;99.90
7792;DHT22;3940;49.892;10.886;2022-09-29T10:44:38;18.60;99.90
7792;DHT22;3940;49.892;10.886;2022-09-29T10:47:22;19.50;99.90
7792;DHT22;3940;49.892;10.886;2022-09-29T10:50:14;17.90;99.90
7792;DHT22;3940;49.892;10.886;2022-09-29T10:53:03;17.70;99.90
7792;DHT22;3940;49.892;10.886;2022-09-29T10:55:52;18.60;99.90
7792;DHT22;3940;49.892;10.886;2022-09-29T10:58:40;18.00;99.90
7792;DHT22;3940;49.892;10.886;2022-09-29T11:01:27;17.70;99.90
7792;DHT22;3940;49.892;10.886;2022-09-29T11:04:31;18.40;99.90
7792;DHT22;3940;49.892;10.886;2022-09-29T11:07:16;18.50;99.90
7792;DHT22;3940;49.892;10.886;2022-09-29T11:10:01;18.30;99.90
7792;DHT22;3940;49.892;10.886;2022-09-29T11:12:46;18.50;99.90
7792;DHT22;3940;49.892;10.886;2022-09-29T11:15:39;16.90;99.90
7792;DHT22;3940;49.892;10.886;2022-09-29T11:18:33;18.10;99.90
7792;DHT22;3940;49.892;10.886;2022-09-29T11:24:58;17.80;99.90
7792;DHT22;3940;49.892;10.886;2022-09-29T11:28:18;17.60;99.90
7792;DHT22;3940;49.892;10.886;2022-09-29T11:38:01;17.90;99.90
7792;DHT22;3940;49.892;10.886;2022-09-29T11:41:05;17.60;99.90
7792;DHT22;3940;49.892;10.886;2022-09-29T11:43:58;18.90;99.90
7792;DHT22;3940;49.892;10.886;2022-09-29T11:47:13;18.80;97.50
7792;DHT22;3940;49.892;10.886;2022-09-29T11:50:22;18.00;97.10
7792;DHT22;3940;49.892;10.886;2022-09-29T11:53:18;19.00;97.80
7792;DHT22;3940;49.892;10.886;2022-09-29T11:56:29;17.70;98.60
7792;DHT22;3940;49.892;10.886;2022-09-29T11:59:38;18.80;99.00
7792;DHT22;3940;49.892;10.886;2022-09-29T12:02:45;19.20;98.10
7792;DHT22;3940;49.892;10.886;2022-09-29T12:05:53;19.20;97.20
7792;DHT22;3940;49.892;10.886;2022-09-29T12:09:11;18.80;96.30
7792;DHT22;3940;49.892;10.886;2022-09-29T12:12:08;18.70;98.70
7792;DHT22;3940;49.892;10.886;2022-09-29T12:15:20;17.70;99.90
7792;DHT22;3940;49.892;10.886;2022-09-29T12:18:22;17.50;99.90
7792;DHT22;3940;49.892;10.886;2022-09-29T12:21:10;18.30;99.90
7792;DHT22;3940;49.892;10.886;2022-09-29T12:23:57;18.20;99.90
7792;DHT22;3940;49.892;10.886;2022-09-29T12:26:44;19.50;98.30
7792;DHT22;3940;49.892;10.886;2022-09-29T12:29:35;18.90;99.00
7792;DHT22;3940;49.892;10.886;2022-09-29T12:32:26;17.40;99.60
7792;DHT22;3940;49.892;10.886;2022-09-29T12:35:21;17.40;99.90
7792;DHT22;3940;49.892;10.886;2022-09-29T12:38:24;16.70;99.90
7792;DHT22;3940;49.892;10.886;2022-09-29T12:41:17;16.00;99.90
7792;DHT22;3940;49.892;10.886;2022-09-29T12:44:13;15.70;99.90
7792;DHT22;3940;49.892;10.886;2022-09-29T12:47:18;16.10;99.90
7792;DHT22;3940;49.892;10.886;2022-09-29T12:50:10;16.30;99.90
7792;DHT22;3940;49.892;10.886;2022-09-29T12:53:15;15.80;99.90
7792;DHT22;3940;49.892;10.886;2022-09-29T12:56:04;16.10;99.90
7792;DHT22;3940;49.892;10.886;2022-09-29T12:58:54;15.80;99.90
7792;DHT22;3940;49.892;10.886;2022-09-29T13:01:41;15.80;99.90
7792;DHT22;3940;49.892;10.886;2022-09-29T13:08:30;16.20;99.90
7792;DHT22;3940;49.892;10.886;2022-09-29T13:11:35;16.00;99.90
7792;DHT22;3940;49.892;10.886;2022-09-29T13:21:01;15.70;99.90
7792;DHT22;3940;49.892;10.886;2022-09-29T13:23:59;15.60;99.90
7792;DHT22;3940;49.892;10.886;2022-09-29T13:27:07;15.30;99.90
7792;DHT22;3940;49.892;10.886;2022-09-29T13:30:03;15.30;99.90
7792;DHT22;3940;49.892;10.886;2022-09-29T13:33:08;15.30;99.90
7792;DHT22;3940;49.892;10.886;2022-09-29T13:35:54;15.30;99.90
7792;DHT22;3940;49.892;10.886;2022-09-29T13:38:38;15.40;99.90
7792;DHT22;3940;49.892;10.886;2022-09-29T13:41:36;15.40;99.90
7792;DHT22;3940;49.892;10.886;2022-09-29T13:44:26;15.00;99.90
7792;DHT22;3940;49.892;10.886;2022-09-29T13:47:32;14.90;99.90
7792;DHT22;3940;49.892;10.886;2022-09-29T13:50:43;14.80;99.90
7792;DHT22;3940;49.892;10.886;2022-09-29T13:53:35;14.80;99.90
7792;DHT22;3940;49.892;10.886;2022-09-29T13:56:20;14.60;99.90
7792;DHT22;3940;49.892;10.886;2022-09-29T13:59:13;14.70;99.90
7792;DHT22;3940;49.892;10.886;2022-09-29T14:01:59;14.90;99.90
7792;DHT22;3940;49.892;10.886;2022-09-29T14:04:51;14.90;99.90
7792;DHT22;3940;49.892;10.886;2022-09-29T14:07:42;14.60;99.90
7792;DHT22;3940;49.892;10.886;2022-09-29T14:10:38;14.40;99.90
7792;DHT22;3940;49.892;10.886;2022-09-29T14:13:28;14.40;99.90
7792;DHT22;3940;49.892;10.886;2022-09-29T14:19:44;14.20;99.90
7792;DHT22;3940;49.892;10.886;2022-09-29T14:22:52;14.20;99.90
7792;DHT22;3940;49.892;10.886;2022-09-29T14:25:49;13.90;99.90
7792;DHT22;3940;49.892;10.886;2022-09-29T14:28:38;14.10;99.90
7792;DHT22;3940;49.892;10.886;2022-09-29T14:31:26;14.10;99.90
7792;DHT22;3940;49.892;10.886;2022-09-29T14:34:14;14.20;99.90
7792;DHT22;3940;49.892;10.886;2022-09-29T14:36:59;14.40;99.90
7792;DHT22;3940;49.892;10.886;2022-09-29T14:39:45;14.20;99.90
7792;DHT22;3940;49.892;10.886;2022-09-29T14:43:03;14.10;99.90
7792;DHT22;3940;49.892;10.886;2022-09-29T14:46:05;14.20;99.90
7792;DHT22;3940;49.892;10.886;2022-09-29T14:53:06;14.30;99.90
7792;DHT22;3940;49.892;10.886;2022-09-29T14:56:08;14.00;99.90
7792;DHT22;3940;49.892;10.886;2022-09-29T14:59:17;13.80;99.90
7792;DHT22;3940;49.892;10.886;2022-09-29T15:02:20;13.60;99.90
7792;DHT22;3940;49.892;10.886;2022-09-29T15:05:26;13.60;99.90
7792;DHT22;3940;49.892;10.886;2022-09-29T15:08:28;13.90;99.90
7792;DHT22;3940;49.892;10.886;2022-09-29T15:11:25;14.10;99.90
7792;DHT22;3940;49.892;10.886;2022-09-29T15:14:22;14.20;99.90
7792;DHT22;3940;49.892;10.886;2022-09-29T15:17:26;14.40;99.90
7792;DHT22;3940;49.892;10.886;2022-09-29T15:20:24;14.20;99.90
7792;DHT22;3940;49.892;10.886;2022-09-29T15:23:33;14.30;99.90
7792;DHT22;3940;49.892;10.886;2022-09-29T15:26:21;14.30;99.90
7792;DHT22;3940;49.892;10.886;2022-09-29T15:29:09;14.30;99.90
7792;DHT22;3940;49.892;10.886;2022-09-29T15:31:57;14.10;99.90
7792;DHT22;3940;49.892;10.886;2022-09-29T15:34:42;13.80;99.90
7792;DHT22;3940;49.892;10.886;2022-09-29T15:40:41;13.70;99.90
7792;DHT22;3940;49.892;10.886;2022-09-29T15:43:29;13.70;99.90
7792;DHT22;3940;49.892;10.886;2022-09-29T15:46:18;13.50;99.90
7792;DHT22;3940;49.892;10.886;2022-09-29T15:49:14;13.50;99.90
7792;DHT22;3940;49.892;10.886;2022-09-29T15:52:03;13.40;99.90
7792;DHT22;3940;49.892;10.886;2022-09-29T15:54:56;13.50;99.90
7792;DHT22;3940;49.892;10.886;2022-09-29T15:57:44;13.40;99.90
7792;DHT22;3940;49.892;10.886;2022-09-29T16:00:43;13.20;99.90
7792;DHT22;3940;49.892;10.886;2022-09-29T16:03:36;13.10;99.90
7792;DHT22;3940;49.892;10.886;2022-09-29T16:06:29;13.00;99.90
7792;DHT22;3940;49.892;10.886;2022-09-29T16:09:17;13.10;99.90
7792;DHT22;3940;49.892;10.886;2022-09-29T16:12:05;13.00;99.90
7792;DHT22;3940;49.892;10.886;2022-09-29T16:14:54;13.00;99.90
7792;DHT22;3940;49.892;10.886;2022-09-29T16:17:42;13.00;99.90
7792;DHT22;3940;49.892;10.886;2022-09-29T16:20:29;13.10;99.90
7792;DHT22;3940;49.892;10.886;2022-09-29T16:23:34;12.80;99.90
7792;DHT22;3940;49.892;10.886;2022-09-29T16:26:35;12.90;99.90
7792;DHT22;3940;49.892;10.886;2022-09-29T16:29:25;13.00;99.90
7792;DHT22;3940;49.892;10.886;2022-09-29T16:32:36;13.00;99.90
7792;DHT22;3940;49.892;10.886;2022-09-29T16:35:35;12.90;99.90
7792;DHT22;3940;49.892;10.886;2022-09-29T16:38:35;12.70;99.90
7792;DHT22;3940;49.892;10.886;2022-09-29T16:41:29;13.00;99.90
7792;DHT22;3940;49.892;10.886;2022-09-29T16:44:35;12.90;99.90
7792;DHT22;3940;49.892;10.886;2022-09-29T16:47:27;12.70;99.90
7792;DHT22;3940;49.892;10.886;2022-09-29T16:50:14;12.50;99.90
7792;DHT22;3940;49.892;10.886;2022-09-29T16:52:59;12.40;99.90
7792;DHT22;3940;49.892;10.886;2022-09-29T16:55:55;12.30;99.90
7792;DHT22;3940;49.892;10.886;2022-09-29T16:58:40;12.40;99.90
7792;DHT22;3940;49.892;10.886;2022-09-29T17:01:25;12.30;99.90
7792;DHT22;3940;49.892;10.886;2022-09-29T17:04:10;12.20;99.90
7792;DHT22;3940;49.892;10.886;2022-09-29T17:06:54;12.20;99.90
7792;DHT22;3940;49.892;10.886;2022-09-29T17:09:39;12.40;99.90
7792;DHT22;3940;49.892;10.886;2022-09-29T17:12:27;12.20;99.90
7792;DHT22;3940;49.892;10.886;2022-09-29T17:15:14;12.20;99.90
7792;DHT22;3940;49.892;10.886;2022-09-29T17:18:00;12.20;99.90
7792;DHT22;3940;49.892;10.886;2022-09-29T17:20:46;12.20;99.90
7792;DHT22;3940;49.892;10.886;2022-09-29T17:23:31;12.10;99.90
7792;DHT22;3940;49.892;10.886;2022-09-29T17:26:24;12.10;99.90
7792;DHT22;3940;49.892;10.886;2022-09-29T17:29:26;12.30;99.90
7792;DHT22;3940;49.892;10.886;2022-09-29T17:32:13;12.30;99.90
7792;DHT22;3940;49.892;10.886;2022-09-29T17:34:58;12.30;99.90
7792;DHT22;3940;49.892;10.886;2022-09-29T17:37:44;12.30;99.90
7792;DHT22;3940;49.892;10.886;2022-09-29T17:40:36;12.20;99.90
7792;DHT22;3940;49.892;10.886;2022-09-29T17:43:22;12.20;99.90
7792;DHT22;3940;49.892;10.886;2022-09-29T17:46:08;12.30;99.90
7792;DHT22;3940;49.892;10.886;2022-09-29T17:48:56;12.40;99.90
7792;DHT22;3940;49.892;10.886;2022-09-29T17:51:40;12.30;99.90
7792;DHT22;3940;49.892;10.886;2022-09-29T17:54:25;12.40;99.90
7792;DHT22;3940;49.892;10.886;2022-09-29T17:57:23;12.50;99.90
7792;DHT22;3940;49.892;10.886;2022-09-29T18:00:19;12.60;99.90
7792;DHT22;3940;49.892;10.886;2022-09-29T18:03:09;12.50;99.90
7792;DHT22;3940;49.892;10.886;2022-09-29T18:05:55;12.40;99.90
7792;DHT22;3940;49.892;10.886;2022-09-29T18:08:41;12.20;99.90
7792;DHT22;3940;49.892;10.886;2022-09-29T18:11:25;12.10;99.90
7792;DHT22;3940;49.892;10.886;2022-09-29T18:14:10;11.90;99.90
7792;DHT22;3940;49.892;10.886;2022-09-29T18:16:55;11.80;99.90
7792;DHT22;3940;49.892;10.886;2022-09-29T18:19:40;11.70;99.90
7792;DHT22;3940;49.892;10.886;2022-09-29T18:22:24;11.90;99.90
7792;DHT22;3940;49.892;10.886;2022-09-29T18:25:10;11.90;99.90
7792;DHT22;3940;49.892;10.886;2022-09-29T18:27:55;11.90;99.90
7792;DHT22;3940;49.892;10.886;2022-09-29T18:30:42;11.70;99.90
7792;DHT22;3940;49.892;10.886;2022-09-29T18:33:27;11.60;99.90
7792;DHT22;3940;49.892;10.886;2022-09-29T18:36:12;11.70;99.90
7792;DHT22;3940;49.892;10.886;2022-09-29T18:38:57;11.60;99.90
7792;DHT22;3940;49.892;10.886;2022-09-29T18:41:43;11.60;99.90
7792;DHT22;3940;49.892;10.886;2022-09-29T18:44:28;11.70;99.90
7792;DHT22;3940;49.892;10.886;2022-09-29T18:47:13;11.70;99.90
7792;DHT22;3940;49.892;10.886;2022-09-29T18:49:57;11.70;99.90
7792;DHT22;3940;49.892;10.886;2022-09-29T18:52:42;11.90;99.90
7792;DHT22;3940;49.892;10.886;2022-09-29T18:55:28;12.00;99.90
7792;DHT22;3940;49.892;10.886;2022-09-29T18:58:15;12.10;99.90
7792;DHT22;3940;49.892;10.886;2022-09-29T19:01:00;12.20;99.90
7792;DHT22;3940;49.892;10.886;2022-09-29T19:03:46;12.30;99.90